M I D A S
Marine Information and Data Acquisition System
Tripno 653 of the Zeeleeuw from 2004-02-23 08:00:59 to 2004-02-23 13:38:13
Back to CruiseResearch ActivitiesStationsMapUnderway DataData graphs

EquipmentUnitsComments
TimeDGPSUTC
LatitudeDGPSDM.mWGS84
LongitudeDGPSDM.mWGS84
SpeedMeteo Stationm/sRelative wind speed
DirectionMeteo StationdegRelative wind direction
TemperatureMeteo Stationdeg CelciusAir temperature
PressureMeteo StationPaAtmospheric pressure
HumidityMeteo Station%Relative humidity
Missing or incorrect values are displayed as -999
Metereological data collected by the RV Zeeleeuw from 2004-02-23 08:00:59 to 2004-02-23 13:38:13
                                                                                    Next 1000 lines
Time Latitude Longitude Speed Direction Temperature Pressure Humidity
2004-02-23 08:01:09 51°13.594 2°56.108 1.7 250 2.7 101800 80
2004-02-23 08:01:14 51°13.594 2°56.107 2.3 268 2.6 101800 80
2004-02-23 08:01:19 51°13.594 2°56.107 1.9 248 2.6 101800 80
2004-02-23 08:01:23 51°13.594 2°56.107 4.3 280 2.7 101800 80
2004-02-23 08:01:29 51°13.594 2°56.106 3.4 257 2.7 101800 80
2004-02-23 08:01:34 51°13.594 2°56.106 3.2 251 2.7 101800 80
2004-02-23 08:01:39 51°13.593 2°56.106 4.8 262 2.7 101800 80
2004-02-23 08:01:43 51°13.593 2°56.106 3.7 261 2.7 101800 80
2004-02-23 08:01:49 51°13.593 2°56.105 4 257 2.7 101800 80
2004-02-23 08:01:54 51°13.593 2°56.106 3.5 243 2.7 101800 80
2004-02-23 08:01:59 51°13.593 2°56.106 3.1 268 2.7 101800 80
2004-02-23 08:02:04 51°13.593 2°56.106 2.7 247 2.7 101810 80
2004-02-23 08:02:09 51°13.593 2°56.106 4.2 246 2.7 101810 80
2004-02-23 08:02:14 51°13.592 2°56.106 4.3 230 2.7 101800 80
2004-02-23 08:02:19 51°13.592 2°56.106 3.7 276 2.7 101800 80
2004-02-23 08:02:24 51°13.592 2°56.106 2.2 263 2.7 101800 80
2004-02-23 08:02:29 51°13.592 2°56.106 5.8 273 2.7 101800 80
2004-02-23 08:02:33 51°13.592 2°56.106 4.2 258 2.7 101810 80
2004-02-23 08:02:39 51°13.593 2°56.104 3.2 248 2.7 101810 80
2004-02-23 08:02:43 51°13.593 2°56.103 4.5 243 2.7 101810 80
2004-02-23 08:02:49 51°13.594 2°56.099 4.2 241 2.7 101810 80
2004-02-23 08:02:54 51°13.595 2°56.096 3.8 232 2.7 101800 79
2004-02-23 08:02:59 51°13.596 2°56.091 3.3 209 2.7 101800 79
2004-02-23 08:03:05 51°13.597 2°56.086 5.4 229 2.7 101810 80
2004-02-23 08:03:10 51°13.598 2°56.081 4.8 226 2.7 101810 80
2004-02-23 08:03:15 51°13.599 2°56.075 6.5 234 2.7 101810 80
2004-02-23 08:03:19 51°13.6 2°56.07 4.8 231 2.7 101810 80
2004-02-23 08:03:25 51°13.602 2°56.063 5.9 233 2.7 101800 80
2004-02-23 08:03:29 51°13.603 2°56.058 4.8 225 2.7 101800 80
2004-02-23 08:03:35 51°13.605 2°56.049 4.6 241 2.7 101800 80
2004-02-23 08:03:39 51°13.607 2°56.043 5.1 217 2.7 101800 80
2004-02-23 08:03:45 51°13.609 2°56.035 4 214 2.7 101810 80
2004-02-23 08:03:50 51°13.611 2°56.027 3.8 214 2.7 101810 80
2004-02-23 08:03:55 51°13.614 2°56.019 4 198 2.7 101800 80
2004-02-23 08:03:59 51°13.616 2°56.012 5.5 209 2.7 101800 80
2004-02-23 08:04:05 51°13.619 2°56.001 4.8 203 2.7 101810 80
2004-02-23 08:04:09 51°13.622 2°55.995 5.5 204 2.7 101810 80
2004-02-23 08:04:15 51°13.625 2°55.984 6 222 2.7 101800 80
2004-02-23 08:04:19 51°13.628 2°55.976 6.5 209 2.7 101800 80
2004-02-23 08:04:25 51°13.632 2°55.965 5.2 201 2.8 101810 80
2004-02-23 08:04:30 51°13.636 2°55.956 4.3 210 2.8 101810 80
2004-02-23 08:04:35 51°13.639 2°55.947 6.3 215 2.8 101810 80
2004-02-23 08:04:39 51°13.642 2°55.939 6.2 213 2.8 101810 80
2004-02-23 08:04:45 51°13.647 2°55.928 5.5 214 2.8 101800 80
2004-02-23 08:04:50 51°13.65 2°55.918 7.1 210 2.8 101800 80
2004-02-23 08:04:55 51°13.654 2°55.909 6.1 214 2.8 101810 79
2004-02-23 08:04:59 51°13.657 2°55.901 6.6 219 2.8 101810 79
2004-02-23 08:05:05 51°13.662 2°55.889 8.3 218 2.8 101810 80
2004-02-23 08:05:09 51°13.665 2°55.882 6.6 214 2.8 101810 80
2004-02-23 08:05:15 51°13.669 2°55.87 6.2 215 2.8 101810 79
2004-02-23 08:05:19 51°13.672 2°55.862 5.4 215 2.8 101810 79
2004-02-23 08:05:25 51°13.677 2°55.85 6.2 211 2.8 101810 79
2004-02-23 08:05:30 51°13.68 2°55.841 6.4 214 2.8 101810 79
2004-02-23 08:05:35 51°13.684 2°55.83 7.2 221 2.8 101810 79
2004-02-23 08:05:40 51°13.687 2°55.82 6.9 227 2.8 101810 79
2004-02-23 08:05:45 51°13.691 2°55.809 7.1 228 2.8 101810 79
2004-02-23 08:05:50 51°13.694 2°55.799 7.1 233 2.8 101810 79
2004-02-23 08:05:55 51°13.697 2°55.788 7.8 229 2.8 101800 79
2004-02-23 08:05:59 51°13.699 2°55.779 8 225 2.8 101800 79
2004-02-23 08:06:05 51°13.701 2°55.765 7.2 232 2.8 101800 79
2004-02-23 08:06:10 51°13.703 2°55.755 6.7 240 2.8 101800 79
2004-02-23 08:06:15 51°13.705 2°55.745 5.2 227 2.8 101810 79
2004-02-23 08:06:19 51°13.705 2°55.739 6 237 2.8 101810 79
2004-02-23 08:06:25 51°13.706 2°55.733 4.9 248 2.8 101810 79
2004-02-23 08:06:29 51°13.706 2°55.732 6 264 2.8 101810 79
2004-02-23 08:06:34 51°13.706 2°55.732 6.2 273 2.8 101810 79
2004-02-23 08:06:39 51°13.707 2°55.735 5.4 293 2.8 101810 79
2004-02-23 08:06:43 51°13.707 2°55.739 7.3 307 2.8 101810 79
2004-02-23 08:06:49 51°13.709 2°55.744 7.2 304 2.8 101810 79
2004-02-23 08:06:54 51°13.71 2°55.748 4.2 291 2.8 101800 79
2004-02-23 08:06:59 51°13.711 2°55.75 4.7 303 2.8 101800 79
2004-02-23 08:07:03 51°13.711 2°55.752 5.6 300 2.9 101800 79
2004-02-23 08:07:09 51°13.711 2°55.752 4 312 2.9 101800 79
2004-02-23 08:07:14 51°13.71 2°55.751 4.2 298 2.9 101800 79
2004-02-23 08:07:19 51°13.709 2°55.748 5.7 298 2.9 101800 79
2004-02-23 08:07:23 51°13.707 2°55.746 4.3 300 2.9 101800 80
2004-02-23 08:07:29 51°13.705 2°55.742 4.3 300 2.9 101800 80
2004-02-23 08:07:35 51°13.703 2°55.739 4.5 301 2.9 101800 80
2004-02-23 08:07:39 51°13.703 2°55.737 4.4 307 2.9 101800 80
2004-02-23 08:07:45 51°13.703 2°55.738 4.9 321 2.9 101810 80
2004-02-23 08:07:50 51°13.704 2°55.739 5.8 41 2.9 101810 80
2004-02-23 08:07:55 51°13.707 2°55.741 7.9 332 2.9 101810 80
2004-02-23 08:07:59 51°13.709 2°55.742 7 343 2.9 101810 80
2004-02-23 08:08:05 51°13.713 2°55.745 7.5 356 3 101810 80
2004-02-23 08:08:09 51°13.716 2°55.744 8 360 3 101810 80
2004-02-23 08:08:14 51°13.721 2°55.744 8.8 1 2.9 101800 80
2004-02-23 08:08:19 51°13.727 2°55.742 7.8 18 2.9 101800 80
2004-02-23 08:08:23 51°13.732 2°55.739 7.2 28 3 101790 80
2004-02-23 08:08:29 51°13.739 2°55.732 7.1 17 3 101790 80
2004-02-23 08:08:34 51°13.745 2°55.726 6.2 27 3 101790 80
2004-02-23 08:08:39 51°13.749 2°55.72 6 22 3 101790 80
2004-02-23 08:08:43 51°13.754 2°55.716 5.9 20 3 101790 79
2004-02-23 08:08:49 51°13.76 2°55.707 5.7 17 3 101790 79
2004-02-23 08:08:54 51°13.765 2°55.7 7.9 23 3 101800 79
2004-02-23 08:08:59 51°13.771 2°55.693 8.1 24 3 101800 79
2004-02-23 08:09:04 51°13.778 2°55.685 8.5 26 3 101800 79
2004-02-23 08:09:09 51°13.785 2°55.677 8.3 23 3 101800 79
2004-02-23 08:09:13 51°13.791 2°55.67 8.2 15 3 101790 79
2004-02-23 08:09:19 51°13.8 2°55.659 8.3 18 3 101790 79
2004-02-23 08:09:24 51°13.808 2°55.65 8.8 23 3 101790 79
2004-02-23 08:09:29 51°13.816 2°55.642 8.9 15 3 101790 79
2004-02-23 08:09:34 51°13.825 2°55.634 10.4 17 3 101790 79
2004-02-23 08:09:39 51°13.833 2°55.626 10.3 17 3 101790 79
2004-02-23 08:09:44 51°13.842 2°55.618 11.1 15 3.1 101790 80
2004-02-23 08:09:49 51°13.852 2°55.61 11.7 14 3.1 101790 80
2004-02-23 08:09:53 51°13.859 2°55.604 10.4 10 3.1 101790 80
2004-02-23 08:09:59 51°13.871 2°55.595 11.4 14 3.1 101790 80
2004-02-23 08:10:04 51°13.88 2°55.588 11.8 17 3.1 101780 80
2004-02-23 08:10:09 51°13.89 2°55.581 11.9 15 3.1 101780 80
2004-02-23 08:10:14 51°13.9 2°55.574 12 15 3.1 101790 80
2004-02-23 08:10:19 51°13.91 2°55.567 12.1 19 3.1 101790 80
2004-02-23 08:10:23 51°13.919 2°55.561 13 22 3.1 101790 80
2004-02-23 08:10:29 51°13.931 2°55.552 12.4 16 3.1 101790 80
2004-02-23 08:10:34 51°13.941 2°55.545 12.9 19 3.1 101790 79
2004-02-23 08:10:39 51°13.951 2°55.538 12 22 3.1 101790 79
2004-02-23 08:10:44 51°13.962 2°55.531 9.2 22 3.1 101790 79
2004-02-23 08:10:49 51°13.972 2°55.523 9.1 11 3.1 101790 79
2004-02-23 08:10:54 51°13.983 2°55.516 11.7 12 3.1 101780 79
2004-02-23 08:10:59 51°13.993 2°55.509 10.5 16 3.1 101780 79
2004-02-23 08:11:03 51°14.002 2°55.503 11 20 3.1 101790 79
2004-02-23 08:11:09 51°14.015 2°55.495 10.9 15 3.1 101790 79
2004-02-23 08:11:13 51°14.023 2°55.489 9.3 12 3.1 101790 79
2004-02-23 08:11:19 51°14.036 2°55.48 10.1 13 3.1 101790 79
2004-02-23 08:11:24 51°14.046 2°55.472 11 11 3.2 101790 79
2004-02-23 08:11:29 51°14.057 2°55.465 10.1 17 3.2 101790 79
2004-02-23 08:11:34 51°14.067 2°55.457 11.8 9 3.2 101790 79
2004-02-23 08:11:39 51°14.078 2°55.449 11.7 13 3.2 101790 79
2004-02-23 08:11:44 51°14.088 2°55.441 11.8 14 3.2 101790 79
2004-02-23 08:11:49 51°14.099 2°55.432 11.4 13 3.2 101790 79
2004-02-23 08:11:53 51°14.108 2°55.426 12.1 13 3.2 101790 79
2004-02-23 08:11:59 51°14.122 2°55.415 11.2 16 3.2 101790 79
2004-02-23 08:12:03 51°14.132 2°55.407 12.4 18 3.2 101790 79
2004-02-23 08:12:09 51°14.146 2°55.395 9.9 16 3.2 101790 79
2004-02-23 08:12:14 51°14.158 2°55.385 10.9 14 3.2 101790 78
2004-02-23 08:12:19 51°14.17 2°55.374 12.5 18 3.2 101790 78
2004-02-23 08:12:23 51°14.18 2°55.366 9.9 27 3.2 101790 78
2004-02-23 08:12:30 51°14.196 2°55.349 11.3 20 3.2 101790 78
2004-02-23 08:12:35 51°14.208 2°55.336 11.5 22 3.3 101790 78
2004-02-23 08:12:39 51°14.218 2°55.325 9.8 12 3.3 101790 78
2004-02-23 08:12:45 51°14.232 2°55.308 12.4 21 3.3 101790 78
2004-02-23 08:12:49 51°14.241 2°55.295 11.8 23 3.3 101790 78
2004-02-23 08:12:54 51°14.252 2°55.279 10.4 21 3.3 101790 78
2004-02-23 08:12:59 51°14.264 2°55.263 11.9 30 3.3 101790 78
2004-02-23 08:13:04 51°14.275 2°55.245 11.4 23 3.3 101790 78
2004-02-23 08:13:09 51°14.285 2°55.226 9.4 23 3.3 101790 78
2004-02-23 08:13:14 51°14.295 2°55.206 11.1 21 3.3 101780 78
2004-02-23 08:13:19 51°14.305 2°55.185 8.1 25 3.3 101780 78
2004-02-23 08:13:25 51°14.316 2°55.16 9.9 16 3.3 101780 78
2004-02-23 08:13:30 51°14.326 2°55.138 13.2 32 3.3 101780 78
2004-02-23 08:13:34 51°14.333 2°55.12 12.8 34 3.4 101780 78
2004-02-23 08:13:39 51°14.342 2°55.098 12.8 33 3.4 101780 78
2004-02-23 08:13:44 51°14.351 2°55.077 12.6 34 3.4 101790 78
2004-02-23 08:13:49 51°14.361 2°55.056 11.9 30 3.4 101790 78
2004-02-23 08:13:54 51°14.37 2°55.034 13.1 32 3.4 101780 78
2004-02-23 08:13:59 51°14.378 2°55.011 12.6 40 3.4 101780 78
2004-02-23 08:14:05 51°14.386 2°54.983 11.7 44 3.4 101800 77
2004-02-23 08:14:09 51°14.39 2°54.964 11.7 44 3.4 101800 77
2004-02-23 08:14:14 51°14.394 2°54.939 12.4 45 3.4 101780 77
2004-02-23 08:14:19 51°14.397 2°54.913 10.7 45 3.4 101780 77
2004-02-23 08:14:23 51°14.4 2°54.894 11.4 50 3.4 101770 77
2004-02-23 08:14:29 51°14.402 2°54.865 9.8 52 3.4 101770 77
2004-02-23 08:14:34 51°14.404 2°54.841 10.1 55 3.4 101760 76
2004-02-23 08:14:39 51°14.405 2°54.818 11.1 55 3.4 101760 76
2004-02-23 08:14:44 51°14.406 2°54.796 9.6 60 3.4 101780 77
2004-02-23 08:14:49 51°14.405 2°54.774 9.6 60 3.4 101780 77
2004-02-23 08:14:53 51°14.405 2°54.757 9.3 61 3.4 101780 76
2004-02-23 08:14:59 51°14.404 2°54.732 8.1 66 3.4 101780 76
2004-02-23 08:15:03 51°14.402 2°54.716 8.1 73 3.4 101780 76
2004-02-23 08:15:09 51°14.4 2°54.691 9.1 77 3.4 101780 76
2004-02-23 08:15:13 51°14.399 2°54.675 6.9 74 3.4 101780 76
2004-02-23 08:15:19 51°14.396 2°54.65 8.5 63 3.4 101780 76
2004-02-23 08:15:25 51°14.392 2°54.627 7.1 70 3.4 101780 76
2004-02-23 08:15:29 51°14.39 2°54.611 8.1 63 3.4 101780 76
2004-02-23 08:15:34 51°14.386 2°54.592 7.8 68 3.4 101780 76
2004-02-23 08:15:39 51°14.383 2°54.572 7.5 76 3.4 101780 76
2004-02-23 08:15:43 51°14.38 2°54.557 7.4 71 3.4 101790 76
2004-02-23 08:15:49 51°14.376 2°54.534 7.2 81 3.4 101790 76
2004-02-23 08:15:53 51°14.373 2°54.519 7.4 79 3.5 101790 76
2004-02-23 08:15:59 51°14.368 2°54.496 9.2 84 3.5 101790 76
2004-02-23 08:16:03 51°14.365 2°54.481 8.5 83 3.5 101790 76
2004-02-23 08:16:09 51°14.36 2°54.457 7.9 82 3.5 101790 76
2004-02-23 08:16:14 51°14.354 2°54.437 10.8 88 3.5 101780 76
2004-02-23 08:16:19 51°14.349 2°54.415 6.5 79 3.5 101780 76
2004-02-23 08:16:24 51°14.344 2°54.392 8 74 3.5 101780 76
2004-02-23 08:16:29 51°14.337 2°54.368 7.9 73 3.5 101780 76
2004-02-23 08:16:33 51°14.333 2°54.347 6.8 65 3.5 101780 75
2004-02-23 08:16:39 51°14.324 2°54.317 7.5 78 3.5 101780 75
2004-02-23 08:16:43 51°14.318 2°54.296 7.6 76 3.5 101780 75
2004-02-23 08:16:49 51°14.308 2°54.264 5.9 78 3.5 101780 75
2004-02-23 08:16:54 51°14.299 2°54.238 7 70 3.5 101770 75
2004-02-23 08:16:59 51°14.29 2°54.212 8 78 3.5 101770 75
2004-02-23 08:17:04 51°14.281 2°54.185 8 83 3.5 101770 75
2004-02-23 08:17:09 51°14.269 2°54.161 8.5 79 3.5 101770 75
2004-02-23 08:17:14 51°14.261 2°54.132 7.5 61 3.5 101770 74
2004-02-23 08:17:19 51°14.249 2°54.107 8.6 78 3.5 101770 74
2004-02-23 08:17:24 51°14.24 2°54.081 7.1 61 3.4 101780 74
2004-02-23 08:17:29 51°14.229 2°54.053 7.8 65 3.4 101780 74
2004-02-23 08:17:33 51°14.222 2°54.031 7.2 66 3.5 101770 74
2004-02-23 08:17:39 51°14.21 2°53.999 9.2 65 3.5 101770 74
2004-02-23 08:17:44 51°14.202 2°53.971 8.3 64 3.5 101770 74
2004-02-23 08:17:49 51°14.191 2°53.944 8.3 75 3.5 101770 74
2004-02-23 08:17:54 51°14.184 2°53.915 8.3 67 3.5 101770 75
2004-02-23 08:17:59 51°14.174 2°53.887 8.8 65 3.5 101770 75
2004-02-23 08:18:03 51°14.166 2°53.864 8.7 63 3.5 101780 75
2004-02-23 08:18:09 51°14.156 2°53.83 7.3 62 3.5 101780 75
2004-02-23 08:18:14 51°14.147 2°53.803 9.1 63 3.5 101780 74
2004-02-23 08:18:19 51°14.136 2°53.775 8.5 74 3.5 101780 74
2004-02-23 08:18:23 51°14.13 2°53.751 7.6 71 3.5 101780 74
2004-02-23 08:18:29 51°14.117 2°53.719 6.6 76 3.5 101780 74
2004-02-23 08:18:34 51°14.108 2°53.69 7 68 3.6 101780 74
2004-02-23 08:18:39 51°14.097 2°53.663 8.1 81 3.6 101780 74
2004-02-23 08:18:43 51°14.09 2°53.641 8.4 61 3.6 101780 74
2004-02-23 08:18:49 51°14.076 2°53.608 7.1 74 3.6 101780 74
2004-02-23 08:18:53 51°14.067 2°53.586 7.1 73 3.6 101780 74
2004-02-23 08:18:59 51°14.056 2°53.552 6.7 70 3.6 101780 74
2004-02-23 08:19:03 51°14.045 2°53.532 8.2 70 3.6 101780 74
2004-02-23 08:19:09 51°14.035 2°53.497 5.8 74 3.6 101780 74
2004-02-23 08:19:14 51°14.024 2°53.471 7.2 61 3.6 101770 73
2004-02-23 08:19:19 51°14.011 2°53.443 10 69 3.6 101770 73
2004-02-23 08:19:24 51°14.005 2°53.412 7.2 68 3.6 101770 73
2004-02-23 08:19:29 51°13.995 2°53.385 8.9 68 3.6 101770 73
2004-02-23 08:19:33 51°13.989 2°53.361 7.8 64 3.6 101770 73
2004-02-23 08:19:39 51°13.979 2°53.325 8.5 64 3.6 101770 73
2004-02-23 08:19:43 51°13.971 2°53.301 8.1 63 3.6 101780 73
2004-02-23 08:19:49 51°13.962 2°53.265 7.2 61 3.6 101780 73
2004-02-23 08:19:54 51°13.951 2°53.237 8.1 52 3.6 101780 73
2004-02-23 08:19:59 51°13.946 2°53.205 6.5 62 3.6 101780 73
2004-02-23 08:20:04 51°13.933 2°53.178 9 62 3.6 101780 73
2004-02-23 08:20:09 51°13.927 2°53.146 6.8 60 3.6 101780 73
2004-02-23 08:20:13 51°13.918 2°53.124 8.6 63 3.6 101770 73
2004-02-23 08:20:19 51°13.909 2°53.088 7.1 59 3.6 101770 73
2004-02-23 08:20:24 51°13.897 2°53.059 7.9 67 3.6 101770 73
2004-02-23 08:20:29 51°13.888 2°53.03 7 68 3.6 101770 73
2004-02-23 08:20:34 51°13.878 2°53 7.2 54 3.6 101800 73
2004-02-23 08:20:39 51°13.866 2°52.97 9.3 64 3.6 101800 73
2004-02-23 08:20:43 51°13.86 2°52.946 6.3 65 3.6 101800 73
2004-02-23 08:20:49 51°13.846 2°52.914 8.3 69 3.6 101800 73
2004-02-23 08:20:53 51°13.839 2°52.889 6.7 55 3.6 101800 73
2004-02-23 08:20:59 51°13.826 2°52.855 9.4 55 3.6 101800 73
2004-02-23 08:21:03 51°13.819 2°52.83 8.9 51 3.6 101800 73
2004-02-23 08:21:09 51°13.806 2°52.795 8.8 68 3.6 101800 73
2004-02-23 08:21:13 51°13.798 2°52.772 8 57 3.7 101810 73
2004-02-23 08:21:19 51°13.786 2°52.737 7.9 71 3.7 101810 73
2004-02-23 08:21:23 51°13.777 2°52.714 7.4 62 3.7 101800 73
2004-02-23 08:21:29 51°13.765 2°52.677 7.2 58 3.7 101800 73
2004-02-23 08:21:34 51°13.753 2°52.649 7.9 69 3.7 101790 73
2004-02-23 08:21:39 51°13.744 2°52.619 6.7 57 3.7 101790 73
2004-02-23 08:21:43 51°13.735 2°52.598 8.4 65 3.7 101790 73
2004-02-23 08:21:49 51°13.723 2°52.561 7.8 54 3.7 101790 73
2004-02-23 08:21:54 51°13.713 2°52.53 8.8 62 3.6 101790 73
2004-02-23 08:21:59 51°13.704 2°52.501 7.1 60 3.6 101790 73
2004-02-23 08:22:03 51°13.696 2°52.48 7.6 71 3.7 101800 73
2004-02-23 08:22:09 51°13.682 2°52.445 8.7 62 3.7 101800 73
2004-02-23 08:22:14 51°13.674 2°52.412 8.5 63 3.7 101800 73
2004-02-23 08:22:19 51°13.664 2°52.382 7.8 70 3.7 101800 73
2004-02-23 08:22:24 51°13.656 2°52.352 7.6 58 3.7 101780 73
2004-02-23 08:22:29 51°13.646 2°52.323 8.2 71 3.7 101780 73
2004-02-23 08:22:33 51°13.639 2°52.299 7.2 66 3.7 101780 73
2004-02-23 08:22:39 51°13.626 2°52.263 7.9 63 3.7 101780 73
2004-02-23 08:22:44 51°13.617 2°52.232 7.5 59 3.7 101790 73
2004-02-23 08:22:49 51°13.604 2°52.204 7.4 70 3.7 101790 73
2004-02-23 08:22:54 51°13.596 2°52.174 6.3 56 3.7 101780 73
2004-02-23 08:22:59 51°13.584 2°52.146 6.8 70 3.7 101780 73
2004-02-23 08:23:04 51°13.574 2°52.116 6.3 68 3.7 101780 73
2004-02-23 08:23:09 51°13.564 2°52.086 6.2 69 3.7 101780 73
2004-02-23 08:23:14 51°13.553 2°52.058 6.6 72 3.7 101780 74
2004-02-23 08:23:19 51°13.541 2°52.03 8.2 68 3.7 101780 74
2004-02-23 08:23:23 51°13.534 2°52.005 7.7 68 3.7 101780 74
2004-02-23 08:23:29 51°13.521 2°51.969 8.1 71 3.7 101780 74
2004-02-23 08:23:34 51°13.513 2°51.938 7.2 63 3.7 101770 74
2004-02-23 08:23:39 51°13.502 2°51.909 7.6 69 3.7 101770 74
2004-02-23 08:23:43 51°13.495 2°51.885 7.2 77 3.7 101790 74
2004-02-23 08:23:49 51°13.482 2°51.852 8.7 67 3.7 101790 74
2004-02-23 08:23:54 51°13.473 2°51.82 7.7 62 3.7 101780 74
2004-02-23 08:23:59 51°13.462 2°51.791 7.9 58 3.7 101780 74
2004-02-23 08:24:03 51°13.454 2°51.768 7.5 61 3.7 101790 74
2004-02-23 08:24:09 51°13.442 2°51.733 7.6 68 3.7 101790 74
2004-02-23 08:24:14 51°13.432 2°51.702 6.8 63 3.7 101790 74
2004-02-23 08:24:19 51°13.421 2°51.673 7 75 3.7 101790 74
2004-02-23 08:24:24 51°13.413 2°51.643 6.9 63 3.7 101780 74
2004-02-23 08:24:29 51°13.402 2°51.614 8.1 62 3.7 101780 74
2004-02-23 08:24:33 51°13.394 2°51.59 7.2 67 3.7 101780 74
2004-02-23 08:24:39 51°13.382 2°51.554 7.2 66 3.7 101780 74
2004-02-23 08:24:43 51°13.373 2°51.531 6.9 62 3.7 101790 74
2004-02-23 08:24:49 51°13.361 2°51.495 6.4 70 3.7 101790 74
2004-02-23 08:24:53 51°13.352 2°51.473 7 78 3.7 101790 74
2004-02-23 08:24:59 51°13.34 2°51.439 6 69 3.7 101790 74
2004-02-23 08:25:03 51°13.33 2°51.417 8.3 59 3.7 101780 75
2004-02-23 08:25:09 51°13.316 2°51.38 8.2 58 3.7 101780 75
2004-02-23 08:25:14 51°13.305 2°51.35 7.6 62 3.8 101780 75
2004-02-23 08:25:19 51°13.295 2°51.321 7.3 49 3.8 101780 75
2004-02-23 08:25:24 51°13.285 2°51.291 8.4 68 3.7 101780 75
2004-02-23 08:25:29 51°13.274 2°51.263 8.2 61 3.7 101780 75
2004-02-23 08:25:33 51°13.266 2°51.238 9.3 57 3.8 101780 75
2004-02-23 08:25:39 51°13.254 2°51.202 8.6 58 3.8 101780 75
2004-02-23 08:25:44 51°13.245 2°51.173 6.8 59 3.8 101780 75
2004-02-23 08:25:49 51°13.233 2°51.144 9.4 60 3.8 101780 75
2004-02-23 08:25:53 51°13.225 2°51.119 8.1 63 3.8 101790 75
2004-02-23 08:25:59 51°13.213 2°51.084 8.5 81 3.8 101790 75
2004-02-23 08:26:03 51°13.205 2°51.062 7.7 65 3.8 101780 75
2004-02-23 08:26:09 51°13.193 2°51.025 8 74 3.8 101780 75
2004-02-23 08:26:13 51°13.184 2°51.002 7.4 67 3.8 101780 75
2004-02-23 08:26:19 51°13.172 2°50.967 7.9 59 3.8 101780 75
2004-02-23 08:26:24 51°13.162 2°50.936 7.7 61 3.8 101780 74
2004-02-23 08:26:29 51°13.152 2°50.907 7.6 75 3.8 101780 74
2004-02-23 08:26:33 51°13.143 2°50.883 8.6 62 3.8 101780 74
2004-02-23 08:26:39 51°13.131 2°50.847 8.1 71 3.8 101780 74
2004-02-23 08:26:44 51°13.123 2°50.817 6.8 74 3.8 101790 74
2004-02-23 08:26:49 51°13.111 2°50.789 8.2 51 3.8 101790 74
2004-02-23 08:26:53 51°13.103 2°50.764 8.2 61 3.8 101780 74
2004-02-23 08:26:59 51°13.091 2°50.728 9.4 58 3.8 101780 74
2004-02-23 08:27:04 51°13.081 2°50.699 9.6 66 3.8 101780 74
2004-02-23 08:27:09 51°13.072 2°50.669 8.4 67 3.8 101780 74
2004-02-23 08:27:14 51°13.061 2°50.64 8.6 71 3.8 101780 75
2004-02-23 08:27:19 51°13.051 2°50.61 7.9 68 3.8 101780 75
2004-02-23 08:27:23 51°13.043 2°50.586 8.2 74 3.8 101790 74
2004-02-23 08:27:29 51°13.03 2°50.551 8.6 63 3.8 101790 74
2004-02-23 08:27:34 51°13.02 2°50.521 8.6 70 3.8 101780 74
2004-02-23 08:27:39 51°13.01 2°50.493 8.6 74 3.8 101780 74
2004-02-23 08:27:43 51°13.002 2°50.469 8 64 3.8 101780 74
2004-02-23 08:27:49 51°12.988 2°50.435 8.2 69 3.8 101780 74
2004-02-23 08:27:54 51°12.978 2°50.404 8.6 66 3.8 101790 74
2004-02-23 08:27:59 51°12.969 2°50.374 7.9 63 3.8 101790 74
2004-02-23 08:28:03 51°12.96 2°50.352 8.3 62 3.8 101780 74
2004-02-23 08:28:09 51°12.948 2°50.316 8.7 76 3.8 101780 74
2004-02-23 08:28:13 51°12.94 2°50.292 7.2 68 3.8 101780 73
2004-02-23 08:28:19 51°12.928 2°50.257 6.3 52 3.8 101780 73
2004-02-23 08:28:23 51°12.917 2°50.235 8.5 68 3.8 101780 73
2004-02-23 08:28:29 51°12.905 2°50.197 8.7 57 3.8 101780 73
2004-02-23 08:28:33 51°12.897 2°50.173 7.5 70 3.8 101780 73
2004-02-23 08:28:39 51°12.885 2°50.138 6 71 3.8 101780 73
2004-02-23 08:28:44 51°12.874 2°50.11 8.3 63 3.8 101780 74
2004-02-23 08:28:49 51°12.864 2°50.08 8.9 58 3.8 101780 74
2004-02-23 08:28:53 51°12.856 2°50.055 8.2 58 3.8 101780 74
2004-02-23 08:28:59 51°12.843 2°50.019 9 69 3.8 101780 74
2004-02-23 08:29:04 51°12.833 2°49.988 9.5 63 3.8 101790 74
2004-02-23 08:29:09 51°12.824 2°49.957 7.6 68 3.8 101790 74
2004-02-23 08:29:14 51°12.814 2°49.929 9.7 63 3.9 101790 74
2004-02-23 08:29:19 51°12.804 2°49.899 7.8 75 3.9 101790 74
2004-02-23 08:29:23 51°12.796 2°49.875 7.2 71 3.9 101780 74
2004-02-23 08:29:29 51°12.783 2°49.841 6.7 74 3.9 101780 74
2004-02-23 08:29:34 51°12.771 2°49.812 8.4 67 3.9 101780 74
2004-02-23 08:29:39 51°12.761 2°49.781 7.7 72 3.9 101780 74
2004-02-23 08:29:45 51°12.748 2°49.746 8.2 69 3.9 101780 74
2004-02-23 08:29:49 51°12.74 2°49.722 8.4 66 3.9 101780 74
2004-02-23 08:29:53 51°12.731 2°49.698 8.3 65 3.9 101780 74
2004-02-23 08:29:59 51°12.72 2°49.662 7.9 76 3.9 101780 74
2004-02-23 08:30:04 51°12.708 2°49.634 7.7 73 3.9 101790 74
2004-02-23 08:30:09 51°12.699 2°49.603 8.7 67 3.9 101790 74
2004-02-23 08:30:14 51°12.689 2°49.572 8.1 69 3.9 101780 74
2004-02-23 08:30:19 51°12.68 2°49.542 7.8 63 3.9 101780 74
2004-02-23 08:30:23 51°12.67 2°49.52 10.6 79 3.9 101780 73
2004-02-23 08:30:29 51°12.659 2°49.483 8.1 71 3.9 101780 73
2004-02-23 08:30:34 51°12.648 2°49.453 8.1 69 3.9 101780 73
2004-02-23 08:30:39 51°12.638 2°49.423 8.2 63 3.9 101780 73
2004-02-23 08:30:43 51°12.629 2°49.399 8.6 69 3.9 101790 73
2004-02-23 08:30:49 51°12.617 2°49.363 9.4 63 3.9 101790 73
2004-02-23 08:30:54 51°12.606 2°49.333 8.3 67 3.9 101780 73
2004-02-23 08:30:59 51°12.596 2°49.303 8.8 67 3.9 101780 73
2004-02-23 08:31:03 51°12.587 2°49.28 8.1 77 3.9 101790 74
2004-02-23 08:31:09 51°12.574 2°49.244 9 56 3.9 101790 74
2004-02-23 08:31:13 51°12.566 2°49.22 9.2 69 3.9 101790 74
2004-02-23 08:31:19 51°12.554 2°49.184 7.3 64 3.9 101790 74
2004-02-23 08:31:23 51°12.545 2°49.161 9 66 3.9 101800 73
2004-02-23 08:31:29 51°12.532 2°49.125 8.5 64 3.9 101800 73
2004-02-23 08:31:33 51°12.524 2°49.1 9.9 66 3.9 101790 73
2004-02-23 08:31:39 51°12.513 2°49.063 7.7 71 3.9 101790 73
2004-02-23 08:31:43 51°12.505 2°49.039 8.5 60 3.9 101790 73
2004-02-23 08:31:49 51°12.493 2°49.003 7.7 71 3.9 101790 73
2004-02-23 08:31:53 51°12.485 2°48.979 8.6 67 3.9 101800 73
2004-02-23 08:31:59 51°12.473 2°48.942 8 72 3.9 101800 73
2004-02-23 08:32:03 51°12.465 2°48.918 7.1 75 3.9 101780 73
2004-02-23 08:32:09 51°12.452 2°48.881 9.3 60 3.9 101780 73
2004-02-23 08:32:13 51°12.445 2°48.856 7.9 63 3.9 101770 73
2004-02-23 08:32:19 51°12.432 2°48.822 9.7 63 3.9 101770 73
2004-02-23 08:32:23 51°12.424 2°48.796 7.6 62 3.9 101770 73
2004-02-23 08:32:29 51°12.412 2°48.76 8.2 75 3.9 101770 73
2004-02-23 08:32:34 51°12.4 2°48.731 8.4 60 3.9 101780 73
2004-02-23 08:32:39 51°12.392 2°48.699 7.2 63 3.9 101780 73
2004-02-23 08:32:43 51°12.382 2°48.677 9.2 69 3.9 101790 74
2004-02-23 08:32:49 51°12.371 2°48.64 7.8 71 3.9 101790 74
2004-02-23 08:32:53 51°12.362 2°48.617 7.8 69 3.9 101780 73
2004-02-23 08:32:59 51°12.351 2°48.58 7.3 66 3.9 101780 73
2004-02-23 08:33:03 51°12.342 2°48.556 8 76 4 101780 74
2004-02-23 08:33:09 51°12.33 2°48.52 8.9 53 4 101780 74
2004-02-23 08:33:14 51°12.319 2°48.49 8.7 71 3.9 101780 73
2004-02-23 08:33:19 51°12.31 2°48.459 7.4 58 3.9 101780 73
2004-02-23 08:33:23 51°12.3 2°48.436 8.5 76 3.9 101780 73
2004-02-23 08:33:29 51°12.289 2°48.401 8.6 65 3.9 101780 73
2004-02-23 08:33:34 51°12.279 2°48.369 7.9 65 4 101790 74
2004-02-23 08:33:39 51°12.269 2°48.339 6.8 78 4 101790 74
2004-02-23 08:33:43 51°12.261 2°48.315 6.5 79 4 101780 74
2004-02-23 08:33:49 51°12.247 2°48.281 8.6 70 4 101780 74
2004-02-23 08:33:53 51°12.241 2°48.255 7.5 66 4 101790 74
2004-02-23 08:33:59 51°12.228 2°48.219 7.7 76 4 101790 74
2004-02-23 08:34:03 51°12.221 2°48.195 6 67 4 101790 74
2004-02-23 08:34:09 51°12.207 2°48.16 8.4 58 4 101790 74
2004-02-23 08:34:13 51°12.2 2°48.135 7.7 56 4 101790 74
2004-02-23 08:34:19 51°12.188 2°48.098 8.4 61 4 101790 74
2004-02-23 08:34:24 51°12.178 2°48.068 8.2 69 4 101790 74
2004-02-23 08:34:29 51°12.168 2°48.039 8.7 66 4 101790 74
2004-02-23 08:34:34 51°12.157 2°48.009 7.9 63 4 101780 75
2004-02-23 08:34:39 51°12.148 2°47.978 7.4 66 4 101780 75
2004-02-23 08:34:44 51°12.136 2°47.949 8 71 4 101790 75
2004-02-23 08:34:49 51°12.126 2°47.918 8.1 71 4 101790 75
2004-02-23 08:34:54 51°12.115 2°47.889 7.7 60 4 101790 74
2004-02-23 08:34:59 51°12.105 2°47.859 8.2 74 4 101790 74
2004-02-23 08:35:03 51°12.097 2°47.835 7.3 62 4 101780 74
2004-02-23 08:35:09 51°12.084 2°47.8 7.1 53 4 101780 74
2004-02-23 08:35:14 51°12.072 2°47.772 7.6 67 4 101790 74
2004-02-23 08:35:19 51°12.062 2°47.742 7 65 4 101790 74
2004-02-23 08:35:24 51°12.051 2°47.714 6.6 73 4 101790 74
2004-02-23 08:35:29 51°12.04 2°47.686 7.5 62 4 101790 74
2004-02-23 08:35:33 51°12.032 2°47.661 7.4 55 4 101780 75
2004-02-23 08:35:39 51°12.021 2°47.624 7.2 55 4 101780 75
2004-02-23 08:35:44 51°12.01 2°47.596 8.1 66 4 101790 75
2004-02-23 08:35:49 51°12 2°47.567 8.7 71 4 101790 75
2004-02-23 08:35:54 51°11.99 2°47.537 8.3 64 4 101800 75
2004-02-23 08:35:59 51°11.982 2°47.505 7 59 4 101800 75
2004-02-23 08:36:03 51°11.974 2°47.482 7.9 65 4 101790 75
2004-02-23 08:36:09 51°11.963 2°47.446 7.3 67 4 101790 75
2004-02-23 08:36:14 51°11.952 2°47.417 7.9 71 4 101790 75
2004-02-23 08:36:19 51°11.943 2°47.387 7.1 79 4 101790 75
2004-02-23 08:36:23 51°11.934 2°47.365 6.8 65 4 101790 75
2004-02-23 08:36:29 51°11.922 2°47.328 7 73 4 101790 75
2004-02-23 08:36:34 51°11.911 2°47.3 7.4 62 4 101780 75
2004-02-23 08:36:39 51°11.901 2°47.271 7.3 69 4 101780 75
2004-02-23 08:36:43 51°11.892 2°47.248 6.9 78 4 101790 75
2004-02-23 08:36:49 51°11.881 2°47.212 6.6 60 4 101790 75
2004-02-23 08:36:54 51°11.869 2°47.184 7.5 67 4 101790 75
2004-02-23 08:36:59 51°11.86 2°47.154 6.7 64 4 101790 75
2004-02-23 08:37:04 51°11.848 2°47.126 7.5 70 4 101790 75
2004-02-23 08:37:09 51°11.839 2°47.095 8 68 4 101790 75
2004-02-23 08:37:13 51°11.831 2°47.072 7 75 4 101790 75
2004-02-23 08:37:19 51°11.819 2°47.037 8 70 4 101790 75
2004-02-23 08:37:23 51°11.811 2°47.014 8.1 76 4 101790 75
2004-02-23 08:37:29 51°11.799 2°46.979 7.3 77 4 101790 75
2004-02-23 08:37:33 51°11.791 2°46.956 8 61 4 101790 75
2004-02-23 08:37:39 51°11.778 2°46.92 8.4 67 4 101790 75
2004-02-23 08:37:44 51°11.768 2°46.89 8.4 74 4 101790 75
2004-02-23 08:37:49 51°11.758 2°46.861 6.5 80 4 101790 75
2004-02-23 08:37:54 51°11.747 2°46.833 6.7 76 4 101790 74
2004-02-23 08:37:59 51°11.736 2°46.804 9.1 79 4 101790 74
2004-02-23 08:38:04 51°11.727 2°46.773 8.5 77 4 101790 74
2004-02-23 08:38:09 51°11.717 2°46.744 7.7 78 4 101790 74
2004-02-23 08:38:13 51°11.709 2°46.721 6.9 79 4 101780 73
2004-02-23 08:38:19 51°11.697 2°46.686 7.2 73 4 101780 73
2004-02-23 08:38:24 51°11.686 2°46.656 7.8 73 4 101790 73
2004-02-23 08:38:29 51°11.678 2°46.625 6.9 67 4 101790 73
2004-02-23 08:38:33 51°11.669 2°46.603 6.5 72 4 101780 73
2004-02-23 08:38:39 51°11.66 2°46.566 6.9 54 4 101780 73
2004-02-23 08:38:44 51°11.649 2°46.537 8.8 68 4 101790 73
2004-02-23 08:38:49 51°11.64 2°46.506 7.3 68 4 101790 73
2004-02-23 08:38:53 51°11.632 2°46.482 7.6 71 4.1 101790 73
2004-02-23 08:38:59 51°11.622 2°46.447 7.9 67 4.1 101790 73
2004-02-23 08:39:03 51°11.614 2°46.423 8.2 70 4.1 101790 73
2004-02-23 08:39:09 51°11.603 2°46.387 7.6 64 4.1 101790 73
2004-02-23 08:39:14 51°11.594 2°46.358 7.1 67 4.1 101790 73
2004-02-23 08:39:19 51°11.582 2°46.329 8.2 77 4.1 101790 73
2004-02-23 08:39:23 51°11.576 2°46.303 6.4 71 4.1 101790 74
2004-02-23 08:39:29 51°11.564 2°46.269 7.4 64 4.1 101790 74
2004-02-23 08:39:34 51°11.555 2°46.24 8.1 66 4.1 101790 73
2004-02-23 08:39:39 51°11.545 2°46.211 8.6 65 4.1 101790 73
2004-02-23 08:39:44 51°11.536 2°46.18 7.8 65 4.1 101800 73
2004-02-23 08:39:49 51°11.526 2°46.152 7.3 71 4.1 101800 73
2004-02-23 08:39:54 51°11.516 2°46.122 7.4 71 4.1 101790 73
2004-02-23 08:39:59 51°11.505 2°46.093 8.6 62 4.1 101790 73
2004-02-23 08:40:03 51°11.497 2°46.068 7.7 62 4.1 101790 73
2004-02-23 08:40:09 51°11.485 2°46.035 7.4 78 4.1 101790 73
2004-02-23 08:40:14 51°11.477 2°46.006 6.1 74 4.2 101800 73
2004-02-23 08:40:19 51°11.465 2°45.978 8 78 4.2 101800 73
2004-02-23 08:40:25 51°11.453 2°45.942 7.4 66 4.2 101790 73
2004-02-23 08:40:29 51°11.445 2°45.918 7.2 80 4.2 101790 73
2004-02-23 08:40:34 51°11.436 2°45.889 7.5 80 4.2 101790 73
2004-02-23 08:40:39 51°11.425 2°45.861 7.6 84 4.2 101790 73
2004-02-23 08:40:44 51°11.416 2°45.831 6.1 68 4.2 101790 72
2004-02-23 08:40:49 51°11.405 2°45.803 10.5 88 4.2 101790 72
2004-02-23 08:40:54 51°11.396 2°45.774 5.9 58 4.2 101790 72
2004-02-23 08:40:59 51°11.384 2°45.745 8.3 73 4.2 101790 72
2004-02-23 08:41:03 51°11.377 2°45.72 6.8 67 4.2 101790 72
2004-02-23 08:41:09 51°11.365 2°45.685 7.4 70 4.2 101790 72
2004-02-23 08:41:13 51°11.357 2°45.662 7.4 80 4.2 101790 72
2004-02-23 08:41:19 51°11.345 2°45.628 8.4 73 4.2 101790 72
2004-02-23 08:41:24 51°11.335 2°45.6 7.8 63 4.2 101790 72
2004-02-23 08:41:29 51°11.325 2°45.569 7.3 69 4.2 101790 72
2004-02-23 08:41:34 51°11.313 2°45.542 11 88 4.2 101800 72
2004-02-23 08:41:39 51°11.304 2°45.514 8.5 65 4.2 101800 72
2004-02-23 08:41:43 51°11.295 2°45.491 9 76 4.2 101800 72
2004-02-23 08:41:49 51°11.284 2°45.454 7 71 4.2 101800 72
2004-02-23 08:41:54 51°11.276 2°45.425 8.3 72 4.2 101790 73
2004-02-23 08:41:59 51°11.265 2°45.396 7.3 66 4.2 101790 73
2004-02-23 08:42:03 51°11.258 2°45.373 7 73 4.2 101790 72
2004-02-23 08:42:09 51°11.247 2°45.337 7.5 77 4.2 101790 72
2004-02-23 08:42:13 51°11.24 2°45.313 7.6 78 4.2 101790 73
2004-02-23 08:42:19 51°11.229 2°45.276 6.9 78 4.2 101790 73
2004-02-23 08:42:24 51°11.219 2°45.248 9.8 81 4.3 101800 73
2004-02-23 08:42:29 51°11.211 2°45.219 9 83 4.3 101800 73
2004-02-23 08:42:33 51°11.203 2°45.196 8.4 65 4.3 101800 73
2004-02-23 08:42:39 51°11.191 2°45.16 6.7 78 4.3 101800 73
2004-02-23 08:42:43 51°11.183 2°45.137 10.3 89 4.2 101790 72
2004-02-23 08:42:49 51°11.172 2°45.102 11.2 103 4.2 101790 72
2004-02-23 08:42:53 51°11.165 2°45.08 9.7 101 4.3 101790 72
2004-02-23 08:42:59 51°11.153 2°45.046 10.1 84 4.3 101790 72
2004-02-23 08:43:04 51°11.143 2°45.017 9 82 4.3 101790 73
2004-02-23 08:43:09 51°11.133 2°44.987 8.6 80 4.3 101790 73
2004-02-23 08:43:13 51°11.125 2°44.963 12.8 85 4.2 101800 71
2004-02-23 08:43:18 51°11.118 2°44.933 9.8 84 4.2 101800 71
2004-02-23 08:43:23 51°11.108 2°44.905 10.9 95 4.2 101800 71
2004-02-23 08:43:29 51°11.096 2°44.871 8.9 82 4.2 101800 71
2004-02-23 08:43:34 51°11.086 2°44.841 9.6 85 4.2 101800 70
2004-02-23 08:43:39 51°11.077 2°44.813 10.7 88 4.2 101800 70
2004-02-23 08:43:43 51°11.068 2°44.791 10.9 82 4.2 101790 69
2004-02-23 08:43:49 51°11.057 2°44.753 12.6 88 4.2 101790 69
2004-02-23 08:43:54 51°11.047 2°44.724 12.3 95 4.2 101790 69
2004-02-23 08:43:59 51°11.039 2°44.696 12.2 94 4.2 101790 69
2004-02-23 08:44:03 51°11.031 2°44.674 11.9 95 4.2 101780 68
2004-02-23 08:44:09 51°11.02 2°44.639 10.5 95 4.2 101780 68
2004-02-23 08:44:14 51°11.009 2°44.61 10.8 91 4.2 101780 68
2004-02-23 08:44:19 51°11 2°44.581 11.3 92 4.2 101780 68
2004-02-23 08:44:24 51°10.99 2°44.553 10.5 84 4.2 101780 67
2004-02-23 08:44:29 51°10.979 2°44.525 11.6 83 4.2 101780 67
2004-02-23 08:44:34 51°10.969 2°44.498 11.2 100 4.2 101790 68
2004-02-23 08:44:39 51°10.957 2°44.471 12.2 97 4.2 101790 68
2004-02-23 08:44:43 51°10.948 2°44.448 11.9 97 4.2 101780 67
2004-02-23 08:44:49 51°10.936 2°44.416 11.3 102 4.2 101780 67
2004-02-23 08:44:53 51°10.928 2°44.393 11.6 83 4.3 101800 68
2004-02-23 08:44:59 51°10.916 2°44.359 12.3 85 4.3 101800 68
2004-02-23 08:45:03 51°10.91 2°44.336 13.2 101 4.3 101800 67
2004-02-23 08:45:09 51°10.898 2°44.301 9.6 85 4.3 101800 67
2004-02-23 08:45:13 51°10.891 2°44.278 11.7 83 4.3 101800 67
2004-02-23 08:45:19 51°10.881 2°44.243 14.2 94 4.3 101800 67
2004-02-23 08:45:23 51°10.875 2°44.22 12.3 97 4.3 101790 68
2004-02-23 08:45:29 51°10.864 2°44.187 12.9 91 4.3 101790 68
2004-02-23 08:45:34 51°10.855 2°44.157 11.4 82 4.3 101780 68
2004-02-23 08:45:39 51°10.846 2°44.127 10.9 89 4.3 101780 68
2004-02-23 08:45:43 51°10.84 2°44.104 10 94 4.3 101790 67
2004-02-23 08:45:49 51°10.83 2°44.072 9.7 103 4.3 101790 67
2004-02-23 08:45:53 51°10.822 2°44.05 11.5 82 4.4 101790 67
2004-02-23 08:45:59 51°10.813 2°44.013 13.1 85 4.4 101790 67
2004-02-23 08:46:03 51°10.804 2°43.99 14.4 97 4.4 101790 68
2004-02-23 08:46:09 51°10.795 2°43.956 12.8 92 4.4 101790 68
2004-02-23 08:46:13 51°10.787 2°43.935 13.2 98 4.4 101800 68
2004-02-23 08:46:19 51°10.776 2°43.9 11.4 98 4.4 101800 68
2004-02-23 08:46:24 51°10.768 2°43.871 10.4 101 4.4 101780 68
2004-02-23 08:46:29 51°10.757 2°43.845 12.6 99 4.4 101780 68
2004-02-23 08:46:34 51°10.748 2°43.817 8.9 97 4.4 101780 67
2004-02-23 08:46:39 51°10.737 2°43.791 10.8 100 4.4 101780 67
2004-02-23 08:46:43 51°10.728 2°43.77 12.5 107 4.4 101790 66
2004-02-23 08:46:49 51°10.716 2°43.736 10.4 104 4.4 101790 66
2004-02-23 08:46:53 51°10.705 2°43.716 13.2 104 4.4 101790 66
2004-02-23 08:46:59 51°10.693 2°43.682 10.6 98 4.4 101790 66
2004-02-23 08:47:03 51°10.686 2°43.662 10.1 103 4.4 101800 66
2004-02-23 08:47:09 51°10.674 2°43.632 10 86 4.4 101800 66
2004-02-23 08:47:14 51°10.665 2°43.604 10.3 78 4.4 101790 66
2004-02-23 08:47:19 51°10.658 2°43.573 12 79 4.4 101790 66
2004-02-23 08:47:23 51°10.652 2°43.549 12 79 4.4 101800 66
2004-02-23 08:47:29 51°10.647 2°43.514 10.9 77 4.4 101800 66
2004-02-23 08:47:34 51°10.641 2°43.485 15 81 4.4 101800 67
2004-02-23 08:47:39 51°10.638 2°43.455 14.6 74 4.4 101800 67
2004-02-23 08:47:45 51°10.634 2°43.418 13.6 68 4.5 101780 67
2004-02-23 08:47:49 51°10.63 2°43.394 13.7 81 4.5 101780 67
2004-02-23 08:47:53 51°10.629 2°43.37 13.3 79 4.5 101780 67
2004-02-23 08:47:59 51°10.624 2°43.333 11.3 76 4.5 101780 67
2004-02-23 08:48:04 51°10.621 2°43.302 14.8 80 4.5 101780 67
2004-02-23 08:48:09 51°10.617 2°43.272 13 74 4.5 101780 67
2004-02-23 08:48:14 51°10.613 2°43.241 11.6 76 4.5 101760 67
2004-02-23 08:48:19 51°10.61 2°43.21 11.7 75 4.5 101760 67
2004-02-23 08:48:24 51°10.604 2°43.18 16.6 85 4.5 101760 67
2004-02-23 08:48:29 51°10.6 2°43.15 17.4 86 4.5 101760 67
2004-02-23 08:48:33 51°10.596 2°43.125 12.5 84 4.5 101770 67
2004-02-23 08:48:39 51°10.591 2°43.088 13.6 83 4.5 101770 67
2004-02-23 08:48:43 51°10.586 2°43.065 14.5 87 4.5 101760 66
2004-02-23 08:48:49 51°10.581 2°43.028 14.6 87 4.5 101760 66
2004-02-23 08:48:54 51°10.576 2°42.997 15.2 88 4.5 101770 67
2004-02-23 08:48:59 51°10.572 2°42.966 12.7 81 4.5 101770 67
2004-02-23 08:49:03 51°10.568 2°42.942 11 79 4.5 101770 67
2004-02-23 08:49:09 51°10.562 2°42.905 12.7 81 4.5 101770 67
2004-02-23 08:49:14 51°10.557 2°42.874 11.7 76 4.5 101770 67
2004-02-23 08:49:19 51°10.553 2°42.843 14.7 79 4.5 101770 67
2004-02-23 08:49:23 51°10.55 2°42.818 12.9 81 4.5 101780 67
2004-02-23 08:49:29 51°10.545 2°42.781 12 75 4.5 101780 67
2004-02-23 08:49:34 51°10.541 2°42.75 12.6 73 4.5 101790 68
2004-02-23 08:49:39 51°10.535 2°42.718 14.7 71 4.5 101790 68
2004-02-23 08:49:43 51°10.533 2°42.692 9.9 79 4.5 101770 67
2004-02-23 08:49:49 51°10.529 2°42.655 11.7 81 4.5 101770 67
2004-02-23 08:49:54 51°10.524 2°42.624 11.7 76 4.5 101760 67
2004-02-23 08:49:59 51°10.521 2°42.592 14.8 78 4.5 101760 67
2004-02-23 08:50:04 51°10.515 2°42.561 13.9 81 4.5 101780 67
2004-02-23 08:50:09 51°10.511 2°42.529 13.1 81 4.5 101780 67
2004-02-23 08:50:14 51°10.505 2°42.498 15.2 82 4.5 101760 68
2004-02-23 08:50:19 51°10.5 2°42.467 15 85 4.5 101760 68
2004-02-23 08:50:24 51°10.495 2°42.436 12.5 77 4.5 101760 67
2004-02-23 08:50:29 51°10.49 2°42.405 14.8 81 4.5 101760 67
2004-02-23 08:50:34 51°10.486 2°42.373 15.1 81 4.5 101780 67
2004-02-23 08:50:39 51°10.483 2°42.341 13 76 4.5 101780 67
2004-02-23 08:50:44 51°10.479 2°42.31 12 78 4.5 101780 67
2004-02-23 08:50:49 51°10.477 2°42.278 12.6 70 4.5 101780 67
2004-02-23 08:50:53 51°10.476 2°42.252 13.4 66 4.5 101780 67
2004-02-23 08:50:59 51°10.474 2°42.213 14.2 75 4.5 101780 67
2004-02-23 08:51:04 51°10.471 2°42.182 14.8 62 4.5 101780 68
2004-02-23 08:51:09 51°10.469 2°42.149 12.5 76 4.5 101780 68
2004-02-23 08:51:14 51°10.467 2°42.117 12.2 76 4.5 101790 69
2004-02-23 08:51:19 51°10.464 2°42.085 13.8 70 4.5 101790 69
2004-02-23 08:51:24 51°10.461 2°42.052 15.6 85 4.5 101750 68
2004-02-23 08:51:29 51°10.458 2°42.019 13.3 74 4.5 101750 68
2004-02-23 08:51:33 51°10.456 2°41.993 15.1 68 4.5 101750 68
2004-02-23 08:51:39 51°10.452 2°41.954 14.7 77 4.5 101750 68
2004-02-23 08:51:44 51°10.449 2°41.922 12.1 74 4.5 101740 68
2004-02-23 08:51:49 51°10.446 2°41.889 15.1 75 4.5 101740 68
2004-02-23 08:51:54 51°10.443 2°41.856 12.9 74 4.5 101740 68
2004-02-23 08:51:59 51°10.441 2°41.823 13.1 77 4.5 101740 68
2004-02-23 08:52:04 51°10.438 2°41.791 13.1 77 4.5 101750 67
2004-02-23 08:52:09 51°10.434 2°41.758 14.6 74 4.5 101750 67
2004-02-23 08:52:13 51°10.433 2°41.731 13.5 75 4.5 101760 67
2004-02-23 08:52:19 51°10.43 2°41.692 12.2 78 4.5 101760 67
2004-02-23 08:52:24 51°10.426 2°41.659 11.9 72 4.5 101740 67
2004-02-23 08:52:29 51°10.423 2°41.626 12.7 80 4.5 101740 67
2004-02-23 08:52:33 51°10.421 2°41.599 13.7 81 4.5 101740 66
2004-02-23 08:52:39 51°10.417 2°41.56 15 84 4.5 101740 66
2004-02-23 08:52:43 51°10.416 2°41.534 12.6 80 4.5 101740 66
2004-02-23 08:52:49 51°10.412 2°41.494 14.8 80 4.5 101740 66
2004-02-23 08:52:54 51°10.409 2°41.46 10.9 76 4.4 101750 66
2004-02-23 08:52:59 51°10.407 2°41.427 12.1 76 4.4 101750 66
2004-02-23 08:53:03 51°10.403 2°41.401 11.5 70 4.4 101750 67
2004-02-23 08:53:09 51°10.4 2°41.362 12.1 76 4.4 101750 67
2004-02-23 08:53:14 51°10.397 2°41.329 10.4 77 4.5 101760 67
2004-02-23 08:53:19 51°10.394 2°41.295 11.9 75 4.5 101760 67
2004-02-23 08:53:24 51°10.391 2°41.263 12.8 66 4.5 101750 66
2004-02-23 08:53:29 51°10.387 2°41.23 13.8 72 4.5 101750 66
2004-02-23 08:53:34 51°10.384 2°41.197 14.1 77 4.4 101760 65
2004-02-23 08:53:39 51°10.381 2°41.164 12.4 78 4.4 101760 65
2004-02-23 08:53:44 51°10.377 2°41.131 12.6 79 4.4 101750 64
2004-02-23 08:53:49 51°10.374 2°41.098 15.2 80 4.4 101750 64
2004-02-23 08:53:53 51°10.372 2°41.071 12.6 73 4.4 101760 64
2004-02-23 08:53:59 51°10.368 2°41.031 13.6 76 4.4 101760 64
2004-02-23 08:54:03 51°10.366 2°41.006 14.5 83 4.4 101750 64
2004-02-23 08:54:09 51°10.361 2°40.966 13.5 80 4.4 101750 64
2004-02-23 08:54:14 51°10.359 2°40.933 11.2 68 4.4 101770 65
2004-02-23 08:54:19 51°10.355 2°40.899 12.2 76 4.4 101770 65
2004-02-23 08:54:24 51°10.353 2°40.866 10.4 77 4.4 101760 65
2004-02-23 08:54:29 51°10.35 2°40.833 14.3 84 4.4 101760 65
2004-02-23 08:54:33 51°10.348 2°40.806 12.8 83 4.4 101780 65
2004-02-23 08:54:39 51°10.344 2°40.766 12.3 81 4.4 101780 65
2004-02-23 08:54:43 51°10.342 2°40.739 11.7 78 4.4 101770 65
2004-02-23 08:54:49 51°10.338 2°40.699 12.7 82 4.4 101770 65
2004-02-23 08:54:54 51°10.335 2°40.666 11.3 79 4.4 101760 65
2004-02-23 08:54:59 51°10.33 2°40.632 10.7 81 4.4 101760 65
2004-02-23 08:55:04 51°10.327 2°40.599 10.7 80 4.4 101760 65
2004-02-23 08:55:09 51°10.324 2°40.566 11.3 76 4.4 101760 65
2004-02-23 08:55:13 51°10.321 2°40.54 11.2 78 4.4 101770 66
2004-02-23 08:55:19 51°10.317 2°40.499 11 70 4.4 101770 66
2004-02-23 08:55:23 51°10.315 2°40.473 10.5 77 4.4 101780 66
2004-02-23 08:55:29 51°10.311 2°40.432 12.6 72 4.4 101780 66
2004-02-23 08:55:33 51°10.309 2°40.406 11 74 4.4 101760 67
2004-02-23 08:55:39 51°10.305 2°40.366 10.5 79 4.4 101760 67
2004-02-23 08:55:43 51°10.303 2°40.34 10.2 72 4.4 101780 67
2004-02-23 08:55:49 51°10.299 2°40.3 10.7 73 4.4 101780 67
2004-02-23 08:55:54 51°10.295 2°40.266 13.5 81 4.4 101770 66
2004-02-23 08:55:59 51°10.293 2°40.233 11.2 72 4.4 101770 66
2004-02-23 08:56:05 51°10.289 2°40.193 11.3 78 4.5 101760 67
2004-02-23 08:56:09 51°10.287 2°40.167 10 74 4.5 101760 67
2004-02-23 08:56:14 51°10.284 2°40.134 13.3 78 4.5 101770 67
2004-02-23 08:56:19 51°10.28 2°40.1 10.5 78 4.5 101770 67
2004-02-23 08:56:24 51°10.278 2°40.066 11.4 74 4.5 101770 68
2004-02-23 08:56:29 51°10.274 2°40.033 12.2 72 4.5 101770 68
2004-02-23 08:56:33 51°10.272 2°40.007 9.9 75 4.5 101760 67
2004-02-23 08:56:39 51°10.267 2°39.967 10.6 75 4.5 101760 67
2004-02-23 08:56:43 51°10.266 2°39.94 11.3 79 4.4 101770 66
2004-02-23 08:56:49 51°10.261 2°39.9 12.9 77 4.4 101770 66
2004-02-23 08:56:54 51°10.258 2°39.866 12.3 77 4.5 101760 67
2004-02-23 08:56:59 51°10.255 2°39.832 11.9 78 4.5 101760 67
2004-02-23 08:57:03 51°10.254 2°39.806 10.5 79 4.4 101770 67
2004-02-23 08:57:09 51°10.25 2°39.766 10.2 75 4.4 101770 67
2004-02-23 08:57:13 51°10.246 2°39.74 12 77 4.4 101780 67
2004-02-23 08:57:19 51°10.242 2°39.699 12.5 78 4.4 101780 67
2004-02-23 08:57:24 51°10.24 2°39.665 10.9 65 4.4 101770 66
2004-02-23 08:57:29 51°10.237 2°39.632 12 73 4.4 101770 66
2004-02-23 08:57:34 51°10.233 2°39.599 11.6 80 4.4 101770 67
2004-02-23 08:57:39 51°10.23 2°39.566 10.4 71 4.4 101770 67
2004-02-23 08:57:43 51°10.226 2°39.539 12.1 80 4.5 101780 68
2004-02-23 08:57:49 51°10.223 2°39.499 11.1 72 4.5 101780 68
2004-02-23 08:57:54 51°10.219 2°39.466 12.5 81 4.5 101770 68
2004-02-23 08:57:59 51°10.216 2°39.433 12.1 79 4.5 101770 68
2004-02-23 08:58:03 51°10.213 2°39.407 11.7 71 4.5 101760 67
2004-02-23 08:58:09 51°10.209 2°39.367 11.7 78 4.5 101760 67
2004-02-23 08:58:14 51°10.206 2°39.334 11.9 80 4.5 101770 66
2004-02-23 08:58:19 51°10.202 2°39.301 10.7 74 4.5 101770 66
2004-02-23 08:58:24 51°10.198 2°39.267 10.8 76 4.5 101770 66
2004-02-23 08:58:29 51°10.196 2°39.234 12.5 80 4.5 101770 66
2004-02-23 08:58:33 51°10.193 2°39.207 12.8 82 4.4 101760 66
2004-02-23 08:58:39 51°10.189 2°39.168 10 71 4.4 101760 66
2004-02-23 08:58:43 51°10.185 2°39.141 10.9 70 4.4 101780 65
2004-02-23 08:58:49 51°10.182 2°39.101 9.3 74 4.4 101780 65
2004-02-23 08:58:53 51°10.179 2°39.075 11.4 75 4.4 101760 66
2004-02-23 08:58:59 51°10.174 2°39.036 10.5 72 4.4 101760 66
2004-02-23 08:59:04 51°10.17 2°39.003 10.1 75 4.4 101770 66
2004-02-23 08:59:09 51°10.168 2°38.97 11 70 4.4 101770 66
2004-02-23 08:59:14 51°10.163 2°38.938 12.6 78 4.4 101780 66
2004-02-23 08:59:19 51°10.16 2°38.905 12.3 76 4.4 101780 66
2004-02-23 08:59:23 51°10.157 2°38.879 11.7 75 4.4 101770 67
2004-02-23 08:59:29 51°10.154 2°38.839 11.7 75 4.4 101770 67
2004-02-23 08:59:34 51°10.149 2°38.807 12 77 4.4 101770 66
2004-02-23 08:59:39 51°10.147 2°38.774 13.3 82 4.4 101770 66
2004-02-23 08:59:44 51°10.143 2°38.741 12.2 83 4.4 101760 66
2004-02-23 08:59:49 51°10.141 2°38.708 11.6 84 4.4 101760 66
2004-02-23 08:59:53 51°10.138 2°38.682 11.1 80 4.4 101760 66
2004-02-23 08:59:59 51°10.134 2°38.643 9 76 4.4 101760 66
2004-02-23 09:00:03 51°10.131 2°38.617 10.6 78 4.5 101780 66
2004-02-23 09:00:09 51°10.127 2°38.578 12.7 81 4.5 101780 66
2004-02-23 09:00:13 51°10.125 2°38.552 10.5 78 4.5 101770 66
2004-02-23 09:00:19 51°10.121 2°38.513 11.2 71 4.5 101770 66
2004-02-23 09:00:24 51°10.118 2°38.48 9.8 74 4.4 101780 67
2004-02-23 09:00:29 51°10.115 2°38.448 11.3 80 4.4 101780 67
2004-02-23 09:00:34 51°10.111 2°38.415 10.5 78 4.4 101780 67
2004-02-23 09:00:39 51°10.108 2°38.383 10.3 76 4.4 101780 67
2004-02-23 09:00:44 51°10.103 2°38.351 11.6 82 4.5 101780 67
2004-02-23 09:00:49 51°10.102 2°38.318 10.3 83 4.5 101780 67
2004-02-23 09:00:54 51°10.097 2°38.286 11.8 79 4.5 101770 67
2004-02-23 09:00:59 51°10.094 2°38.253 15 86 4.5 101770 67
2004-02-23 09:01:04 51°10.09 2°38.22 11.7 84 4.5 101770 67
2004-02-23 09:01:09 51°10.089 2°38.187 11.7 80 4.5 101770 67
2004-02-23 09:01:13 51°10.084 2°38.162 13.9 83 4.5 101780 66
2004-02-23 09:01:19 51°10.082 2°38.123 12.7 81 4.5 101780 66
2004-02-23 09:01:24 51°10.078 2°38.09 9.5 72 4.5 101770 66
2004-02-23 09:01:29 51°10.075 2°38.056 10.9 78 4.5 101770 66
2004-02-23 09:01:34 51°10.074 2°38.024 9.5 75 4.5 101770 67
2004-02-23 09:01:39 51°10.069 2°37.992 11.8 83 4.5 101770 67
2004-02-23 09:01:44 51°10.066 2°37.959 10.3 79 4.5 101770 66
2004-02-23 09:01:49 51°10.062 2°37.926 12.4 79 4.5 101770 66
2004-02-23 09:01:54 51°10.059 2°37.893 10 70 4.5 101780 67
2004-02-23 09:01:59 51°10.056 2°37.86 11.7 79 4.5 101780 67
2004-02-23 09:02:04 51°10.051 2°37.828 9.6 77 4.5 101780 68
2004-02-23 09:02:09 51°10.047 2°37.795 15.3 86 4.5 101780 68
2004-02-23 09:02:14 51°10.044 2°37.761 13.2 89 4.5 101780 68
2004-02-23 09:02:19 51°10.04 2°37.729 9.3 77 4.5 101780 68
2004-02-23 09:02:24 51°10.036 2°37.696 11.2 79 4.5 101780 68
2004-02-23 09:02:29 51°10.032 2°37.663 13.3 80 4.5 101780 68
2004-02-23 09:02:34 51°10.027 2°37.632 12.8 81 4.5 101790 67
2004-02-23 09:02:39 51°10.023 2°37.599 12.5 81 4.5 101790 67
2004-02-23 09:02:44 51°10.02 2°37.566 13.9 81 4.5 101780 68
2004-02-23 09:02:49 51°10.015 2°37.534 10.3 81 4.5 101780 68
2004-02-23 09:02:54 51°10.011 2°37.501 14.8 88 4.6 101790 67
2004-02-23 09:02:59 51°10.007 2°37.469 14.7 84 4.6 101790 67
2004-02-23 09:03:03 51°10.002 2°37.442 13.6 85 4.5 101790 67
2004-02-23 09:03:09 51°10 2°37.403 12.9 82 4.5 101790 67
2004-02-23 09:03:13 51°9.995 2°37.377 16 88 4.5 101780 67
2004-02-23 09:03:19 51°9.992 2°37.338 12.7 93 4.5 101780 67
2004-02-23 09:03:23 51°9.987 2°37.312 12.1 81 4.5 101790 66
2004-02-23 09:03:29 51°9.983 2°37.272 9.9 79 4.5 101790 66
2004-02-23 09:03:34 51°9.979 2°37.239 14.6 90 4.5 101770 65
2004-02-23 09:03:39 51°9.975 2°37.206 12.9 84 4.5 101770 65
2004-02-23 09:03:44 51°9.972 2°37.174 13.4 84 4.5 101770 65
2004-02-23 09:03:49 51°9.966 2°37.141 15.9 89 4.5 101770 65
2004-02-23 09:03:53 51°9.964 2°37.114 13.6 85 4.5 101780 66
2004-02-23 09:03:59 51°9.958 2°37.075 15.7 88 4.5 101780 66
2004-02-23 09:04:04 51°9.955 2°37.043 14 86 4.5 101790 67
2004-02-23 09:04:09 51°9.95 2°37.011 14.4 85 4.5 101790 67
2004-02-23 09:04:13 51°9.948 2°36.984 14.2 87 4.5 101790 65
2004-02-23 09:04:19 51°9.942 2°36.944 10.1 80 4.5 101790 65
2004-02-23 09:04:24 51°9.938 2°36.911 13.2 81 4.4 101780 64
2004-02-23 09:04:29 51°9.934 2°36.879 13.9 86 4.4 101780 64
2004-02-23 09:04:34 51°9.931 2°36.846 13.3 82 4.4 101780 64
2004-02-23 09:04:39 51°9.924 2°36.813 13.5 82 4.4 101780 64
2004-02-23 09:04:44 51°9.921 2°36.78 12 77 4.4 101790 65
2004-02-23 09:04:49 51°9.917 2°36.747 12.3 78 4.4 101790 65
2004-02-23 09:04:53 51°9.914 2°36.72 14.3 79 4.4 101790 66
2004-02-23 09:04:59 51°9.911 2°36.68 11.1 76 4.4 101790 66
2004-02-23 09:05:03 51°9.909 2°36.653 13.1 70 4.4 101780 67
2004-02-23 09:05:09 51°9.907 2°36.612 13.2 72 4.4 101780 67
2004-02-23 09:05:14 51°9.905 2°36.579 11.7 75 4.4 101800 67
2004-02-23 09:05:19 51°9.905 2°36.547 10.6 69 4.4 101800 67
2004-02-23 09:05:23 51°9.903 2°36.52 13.9 67 4.4 101780 67
2004-02-23 09:05:29 51°9.903 2°36.479 11.6 69 4.4 101780 67
2004-02-23 09:05:34 51°9.903 2°36.446 13.8 66 4.3 101780 66
2004-02-23 09:05:39 51°9.904 2°36.414 12.7 71 4.3 101780 66
2004-02-23 09:05:44 51°9.906 2°36.381 13.8 61 4.3 101790 66
2004-02-23 09:05:49 51°9.91 2°36.348 13.6 61 4.3 101790 66
2004-02-23 09:05:54 51°9.913 2°36.316 14.3 61 4.2 101790 66
2004-02-23 09:05:59 51°9.918 2°36.284 15.7 59 4.2 101790 66
2004-02-23 09:06:04 51°9.923 2°36.253 13.2 52 4.2 101790 66
2004-02-23 09:06:09 51°9.929 2°36.222 13.7 51 4.2 101790 66
2004-02-23 09:06:13 51°9.933 2°36.197 14.4 57 4.2 101790 67
2004-02-23 09:06:19 51°9.943 2°36.162 13.8 51 4.2 101790 67
2004-02-23 09:06:23 51°9.949 2°36.138 14.8 49 4.1 101780 67
2004-02-23 09:06:29 51°9.959 2°36.104 14.9 50 4.1 101780 67
2004-02-23 09:06:34 51°9.968 2°36.076 14.3 50 4.1 101780 67
2004-02-23 09:06:39 51°9.977 2°36.048 14.7 47 4.1 101780 67
2004-02-23 09:06:43 51°9.985 2°36.027 15.8 52 4.1 101790 68
2004-02-23 09:06:49 51°9.998 2°35.996 15.6 44 4.1 101790 68
2004-02-23 09:06:54 51°10.01 2°35.971 14.5 42 4.1 101780 67
2004-02-23 09:06:59 51°10.022 2°35.947 14.4 36 4.1 101780 67
2004-02-23 09:07:05 51°10.037 2°35.921 16.3 41 4.1 101790 67
2004-02-23 09:07:09 51°10.049 2°35.905 17.9 42 4.1 101790 67
2004-02-23 09:07:13 51°10.06 2°35.89 15.9 43 4.1 101780 67
2004-02-23 09:07:19 51°10.079 2°35.872 15.1 34 4.1 101780 67
2004-02-23 09:07:23 51°10.09 2°35.859 16.7 33 4.1 101790 68
2004-02-23 09:07:29 51°10.109 2°35.846 16.7 29 4.1 101790 68
2004-02-23 09:07:34 51°10.125 2°35.836 17.5 30 4.1 101790 68
2004-02-23 09:07:39 51°10.141 2°35.829 18.8 26 4.1 101790 68
2004-02-23 09:07:43 51°10.155 2°35.823 17.1 24 4.1 101770 68
2004-02-23 09:07:49 51°10.174 2°35.817 16.3 23 4.1 101770 68
2004-02-23 09:07:54 51°10.191 2°35.814 15.6 20 4.1 101790 67
2004-02-23 09:07:59 51°10.208 2°35.812 17.7 16 4.1 101790 67
2004-02-23 09:08:03 51°10.221 2°35.813 17.9 18 4 101780 67
2004-02-23 09:08:09 51°10.24 2°35.813 20.6 18 4 101780 67
2004-02-23 09:08:14 51°10.257 2°35.814 20.3 19 4 101800 67
2004-02-23 09:08:19 51°10.273 2°35.816 18.9 21 4 101800 67
2004-02-23 09:08:25 51°10.293 2°35.819 18.9 20 4 101800 68
2004-02-23 09:08:29 51°10.306 2°35.822 18.1 23 4 101800 68
2004-02-23 09:08:33 51°10.319 2°35.826 17.6 20 4 101810 68
2004-02-23 09:08:39 51°10.34 2°35.829 18.8 16 4 101810 68
2004-02-23 09:08:43 51°10.353 2°35.833 19.2 20 4 101820 69
2004-02-23 09:08:49 51°10.373 2°35.838 19.6 15 4 101820 69
2004-02-23 09:08:53 51°10.386 2°35.841 19.5 14 4 101810 69
2004-02-23 09:08:59 51°10.405 2°35.846 17 18 4 101810 69
2004-02-23 09:09:03 51°10.419 2°35.849 17.3 15 4 101810 70
2004-02-23 09:09:09 51°10.439 2°35.854 18.1 15 4 101810 70
2004-02-23 09:09:14 51°10.456 2°35.857 18.8 17 4 101820 71
2004-02-23 09:09:19 51°10.473 2°35.86 18.4 17 4 101820 71
2004-02-23 09:09:25 51°10.493 2°35.865 19.6 16 3.9 101820 72
2004-02-23 09:09:29 51°10.506 2°35.867 19.6 25 3.9 101820 72
2004-02-23 09:09:33 51°10.519 2°35.871 20.2 18 3.9 101810 72
2004-02-23 09:09:39 51°10.539 2°35.873 17.8 19 3.9 101810 72
2004-02-23 09:09:44 51°10.556 2°35.876 18.7 21 3.9 101830 73
2004-02-23 09:09:49 51°10.572 2°35.879 18.6 25 3.9 101830 73
2004-02-23 09:09:53 51°10.585 2°35.882 17.9 28 3.8 101810 73
2004-02-23 09:09:59 51°10.605 2°35.883 18.6 22 3.8 101810 73
2004-02-23 09:10:03 51°10.618 2°35.886 17.6 23 3.8 101800 73
2004-02-23 09:10:09 51°10.638 2°35.889 19.6 27 3.8 101800 73
2004-02-23 09:10:14 51°10.653 2°35.891 18.2 24 3.7 101830 73
2004-02-23 09:10:19 51°10.669 2°35.894 18.2 22 3.7 101830 73
2004-02-23 09:10:23 51°10.682 2°35.894 17.6 24 3.7 101810 73
2004-02-23 09:10:29 51°10.701 2°35.897 16.6 27 3.7 101810 73
2004-02-23 09:10:34 51°10.716 2°35.898 15.2 23 3.6 101800 72
2004-02-23 09:10:39 51°10.732 2°35.9 16.9 23 3.6 101800 72
2004-02-23 09:10:44 51°10.748 2°35.902 17.4 24 3.6 101810 73
2004-02-23 09:10:49 51°10.764 2°35.905 17.7 21 3.6 101810 73
2004-02-23 09:10:53 51°10.777 2°35.907 18.5 18 3.5 101810 73
2004-02-23 09:10:59 51°10.797 2°35.911 19 19 3.5 101810 73
2004-02-23 09:11:04 51°10.813 2°35.916 19.5 17 3.5 101820 74
2004-02-23 09:11:09 51°10.829 2°35.922 18.3 19 3.5 101820 74
2004-02-23 09:11:13 51°10.842 2°35.926 17.2 15 3.5 101800 74
2004-02-23 09:11:19 51°10.861 2°35.934 17.8 14 3.5 101800 74
2004-02-23 09:11:23 51°10.873 2°35.94 18 15 3.4 101810 74
2004-02-23 09:11:29 51°10.892 2°35.951 19 12 3.4 101810 74
2004-02-23 09:11:34 51°10.907 2°35.96 17.7 14 3.4 101820 74
2004-02-23 09:11:39 51°10.922 2°35.97 16.7 10 3.4 101820 74
2004-02-23 09:11:44 51°10.936 2°35.982 17.9 14 3.4 101830 74
2004-02-23 09:11:49 51°10.951 2°35.993 20.1 13 3.4 101830 74
2004-02-23 09:11:54 51°10.965 2°36.005 18.9 12 3.4 101820 74
2004-02-23 09:11:59 51°10.979 2°36.015 16.4 10 3.4 101820 74
2004-02-23 09:12:03 51°10.991 2°36.023 17.8 14 3.4 101820 75
2004-02-23 09:12:09 51°11.008 2°36.036 17.9 13 3.4 101820 75
2004-02-23 09:12:14 51°11.022 2°36.047 18.9 10 3.4 101820 75
2004-02-23 09:12:19 51°11.037 2°36.058 18.1 11 3.4 101820 75
2004-02-23 09:12:23 51°11.049 2°36.067 17.3 14 3.4 101820 75
2004-02-23 09:12:29 51°11.066 2°36.079 17.7 14 3.4 101820 75
2004-02-23 09:12:34 51°11.081 2°36.09 16.3 13 3.3 101820 75
2004-02-23 09:12:39 51°11.095 2°36.101 18 10 3.3 101820 75
2004-02-23 09:12:43 51°11.107 2°36.11 17.9 12 3.3 101830 75
2004-02-23 09:12:49 51°11.123 2°36.125 19 11 3.3 101830 75
2004-02-23 09:12:53 51°11.135 2°36.135 18 10 3.3 101820 75
2004-02-23 09:12:59 51°11.151 2°36.151 19 7 3.3 101820 75
2004-02-23 09:13:04 51°11.164 2°36.166 17.9 9 3.3 101830 75
2004-02-23 09:13:09 51°11.177 2°36.179 17 13 3.3 101830 75
2004-02-23 09:13:14 51°11.19 2°36.195 16.7 359 3.3 101830 75
2004-02-23 09:13:19 51°11.204 2°36.208 16.2 9 3.3 101830 75
2004-02-23 09:13:24 51°11.217 2°36.223 16.8 2 3.3 101830 75
2004-02-23 09:13:29 51°11.23 2°36.238 14.9 9 3.3 101830 75
2004-02-23 09:13:34 51°11.243 2°36.251 17.4 10 3.3 101830 75
2004-02-23 09:13:39 51°11.257 2°36.266 18.2 10 3.3 101830 75
2004-02-23 09:13:43 51°11.268 2°36.276 18 7 3.3 101820 76
2004-02-23 09:13:50 51°11.286 2°36.297 19 3 3.3 101820 76
2004-02-23 09:13:54 51°11.297 2°36.308 17.8 4 3.3 101830 76
2004-02-23 09:14:00 51°11.313 2°36.326 17.7 10 3.3 101830 76
2004-02-23 09:14:04 51°11.323 2°36.337 18.1 8 3.3 101820 76
2004-02-23 09:14:10 51°11.339 2°36.355 17.1 6 3.3 101820 76
2004-02-23 09:14:14 51°11.349 2°36.366 21.4 8 3.3 101830 76
2004-02-23 09:14:18 51°11.361 2°36.377 20.4 8 3.3 101830 76
2004-02-23 09:14:24 51°11.376 2°36.394 20.7 8 3.3 101830 76
2004-02-23 09:14:30 51°11.392 2°36.411 21.7 11 3.3 101830 76
2004-02-23 09:14:34 51°11.403 2°36.422 20.9 7 3.4 101820 77
2004-02-23 09:14:40 51°11.42 2°36.439 20.9 6 3.4 101820 77
2004-02-23 09:14:44 51°11.43 2°36.451 19.2 3 3.4 101820 77
2004-02-23 09:14:50 51°11.445 2°36.471 17.7 4 3.4 101820 77
2004-02-23 09:14:54 51°11.454 2°36.486 20.4   3.4 101830 77
2004-02-23 09:15:00 51°11.468 2°36.507 19.7 357 3.4 101830 77
2004-02-23 09:15:04 51°11.476 2°36.523 19.2 356 3.4 101820 77
2004-02-23 09:15:10 51°11.49 2°36.546 21.2 355 3.4 101820 77
2004-02-23 09:15:14 51°11.498 2°36.56 21 355 3.4 101830 77
2004-02-23 09:15:19 51°11.507 2°36.581 18.7 353 3.4 101830 77
2004-02-23 09:15:24 51°11.517 2°36.601 18.5 353 3.3 101820 76
2004-02-23 09:15:28 51°11.524 2°36.618 17.8 354 3.3 101820 76
2004-02-23 09:15:34 51°11.536 2°36.642 17.5 356 3.3 101810 76
2004-02-23 09:15:40 51°11.547 2°36.667 20.1 350 3.3 101810 76
2004-02-23 09:15:44 51°11.555 2°36.683 16.7 351 3.3 101810 75
2004-02-23 09:15:48 51°11.562 2°36.7 18.6 356 3.3 101810 75
2004-02-23 09:15:54 51°11.573 2°36.724 20 355 3.2 101810 76
2004-02-23 09:16:00 51°11.582 2°36.75 16.5 352 3.2 101810 76
2004-02-23 09:16:04 51°11.589 2°36.767 17.2 351 3.2 101820 76
2004-02-23 09:16:10 51°11.6 2°36.791 18.1 356 3.2 101820 76
2004-02-23 09:16:14 51°11.607 2°36.807 19.5 357 3.2 101810 76
2004-02-23 09:16:19 51°11.617 2°36.828 17.4 350 3.2 101810 76
2004-02-23 09:16:24 51°11.626 2°36.848 18.4 350 3.2 101810 76
2004-02-23 09:16:30 51°11.636 2°36.873 17.9 351 3.2 101810 76
2004-02-23 09:16:34 51°11.644 2°36.887 17.1 354 3.2 101820 77
2004-02-23 09:16:38 51°11.651 2°36.903 17 355 3.2 101820 77
2004-02-23 09:16:44 51°11.662 2°36.926 16.3 357 3.2 101820 77
2004-02-23 09:16:50 51°11.673 2°36.951 16.8 360 3.2 101820 77
2004-02-23 09:16:54 51°11.68 2°36.968 16.7 353 3.2 101810 77
2004-02-23 09:17:00 51°11.692 2°36.992 19.8 353 3.2 101810 77
2004-02-23 09:17:04 51°11.7 2°37.008 17.8 1 3.2 101810 77
2004-02-23 09:17:08 51°11.707 2°37.026 17.1 353 3.2 101810 77
2004-02-23 09:17:14 51°11.719 2°37.049 19.3   3.2 101810 77
2004-02-23 09:17:20 51°11.73 2°37.074 15.7 2 3.2 101810 77
2004-02-23 09:17:24 51°11.737 2°37.09 15.1 359 3.2 101820 77
2004-02-23 09:17:30 51°11.747 2°37.115 15 356 3.2 101820 77
2004-02-23 09:17:34 51°11.754 2°37.131 17.2   3.2 101810 77
2004-02-23 09:17:40 51°11.765 2°37.155 16.5 352 3.2 101810 77
2004-02-23 09:17:44 51°11.773 2°37.172 14.7 354 3.2 101820 78
2004-02-23 09:17:50 51°11.784 2°37.196 18.5 352 3.2 101820 78
2004-02-23 09:17:54 51°11.792 2°37.212 16.5 360 3.2 101810 78
2004-02-23 09:18:00 51°11.802 2°37.238 15.2 359 3.2 101810 78
2004-02-23 09:18:04 51°11.808 2°37.256 17.3 352 3.2 101810 78
2004-02-23 09:18:10 51°11.818 2°37.282 17.6 351 3.2 101810 78
2004-02-23 09:18:14 51°11.824 2°37.298 17.4 355 3.2 101820 78
2004-02-23 09:18:19 51°11.832 2°37.32 17.1 355 3.2 101820 78
2004-02-23 09:18:24 51°11.841 2°37.34 17.1 356 3.2 101820 78
2004-02-23 09:18:30 51°11.85 2°37.367 17.9 352 3.2 101820 78
2004-02-23 09:18:34 51°11.858 2°37.382 16.6 348 3.2 101810 78
2004-02-23 09:18:39 51°11.866 2°37.405 17.6 349 3.2 101810 78
2004-02-23 09:18:44 51°11.875 2°37.425 17.5 353 3.1 101830 78
2004-02-23 09:18:49 51°11.883 2°37.448 16.2 355 3.1 101830 78
2004-02-23 09:18:54 51°11.892 2°37.468 16.1 359 3.1 101810 78
2004-02-23 09:18:58 51°11.898 2°37.486 15.9 354 3.1 101810 78
2004-02-23 09:19:04 51°11.91 2°37.511 15.5 357 3.1 101830 78
2004-02-23 09:19:10 51°11.919 2°37.536 16.8 353 3.1 101830 78
2004-02-23 09:19:14 51°11.926 2°37.553 15.2 355 3.1 101810 78
2004-02-23 09:19:19 51°11.936 2°37.574 17.1 356 3.1 101810 78
2004-02-23 09:19:24 51°11.943 2°37.596 15.4 354 3.1 101810 79
2004-02-23 09:19:30 51°11.954 2°37.623 15.5 355 3.1 101810 79
2004-02-23 09:19:34 51°11.961 2°37.64 16.5 355 3.1 101820 79
2004-02-23 09:19:40 51°11.971 2°37.665 16.8 354 3.1 101820 79
2004-02-23 09:19:44 51°11.978 2°37.682 16.3 353 3.1 101820 79
2004-02-23 09:19:50 51°11.989 2°37.708 16.3 359 3.1 101820 79
2004-02-23 09:19:54 51°11.995 2°37.727 15.8 357 3 101820 79
2004-02-23 09:20:00 51°12.006 2°37.751 16.8   3 101820 79
2004-02-23 09:20:04 51°12.012 2°37.77 16.1 351 3 101820 79
2004-02-23 09:20:10 51°12.024 2°37.795 14.8 357 3 101820 79
2004-02-23 09:20:14 51°12.031 2°37.812 13.6 351 3 101810 79
2004-02-23 09:20:20 51°12.041 2°37.837 17.4   3 101810 79
2004-02-23 09:20:24 51°12.047 2°37.854 16.4 353 3 101820 79
2004-02-23 09:20:30 51°12.057 2°37.88 16 351 3 101820 79
2004-02-23 09:20:34 51°12.064 2°37.898 16.1 356 3 101830 80
2004-02-23 09:20:40 51°12.075 2°37.922 15.5 357 3 101830 80
2004-02-23 09:20:44 51°12.081 2°37.94 15.2 356 3 101810 80
2004-02-23 09:20:49 51°12.09 2°37.96 15.5 357 3 101810 80
2004-02-23 09:20:54 51°12.098 2°37.983 14.9 351 3 101830 80
2004-02-23 09:21:00 51°12.11 2°38.008 15.5 358 3 101830 80
2004-02-23 09:21:04 51°12.116 2°38.026 14.9 356 3 101820 80
2004-02-23 09:21:10 51°12.126 2°38.052 15.2 355 3 101820 80
2004-02-23 09:21:14 51°12.133 2°38.07 14.5 357 3 101810 79
2004-02-23 09:21:19 51°12.141 2°38.092 15.2 350 3 101810 79
2004-02-23 09:21:24 51°12.151 2°38.114 15.4 357 3 101810 80
2004-02-23 09:21:30 51°12.16 2°38.141 17.2 351 3 101810 80
2004-02-23 09:21:34 51°12.167 2°38.159 16.6 347 3 101810 80
2004-02-23 09:21:40 51°12.176 2°38.186 14.7 357 3 101810 80
2004-02-23 09:21:44 51°12.181 2°38.205 15.8 347 3 101820 80
2004-02-23 09:21:50 51°12.192 2°38.231 15.7 349 3 101820 80
2004-02-23 09:21:54 51°12.198 2°38.25 17 348 3 101810 80
2004-02-23 09:22:00 51°12.208 2°38.277 15.7 355 3 101810 80
2004-02-23 09:22:04 51°12.215 2°38.295 16.9 350 3 101810 80
2004-02-23 09:22:10 51°12.226 2°38.321 14.8 1 3 101810 80
2004-02-23 09:22:14 51°12.231 2°38.34 15.2 352 3 101830 80
2004-02-23 09:22:19 51°12.24 2°38.362 14.2 355 3 101830 80
2004-02-23 09:22:24 51°12.248 2°38.385 14.8 350 3 101830 80
2004-02-23 09:22:30 51°12.258 2°38.411 15.8 351 3 101830 80
2004-02-23 09:22:34 51°12.265 2°38.429 16.6 350 3 101820 80
2004-02-23 09:22:39 51°12.274 2°38.45 16.4 351 3 101820 80
2004-02-23 09:22:44 51°12.283 2°38.472 15.5 349 3 101810 80
2004-02-23 09:22:50 51°12.293 2°38.499 14.7 352 3 101810 80
2004-02-23 09:22:54 51°12.299 2°38.517 15.3 348 3 101820 80
2004-02-23 09:22:58 51°12.307 2°38.535 14.8 353 3 101820 80
2004-02-23 09:23:04 51°12.317 2°38.562 16.7 350 3 101820 80
2004-02-23 09:23:10 51°12.326 2°38.59 17.3 349 3 101820 80
2004-02-23 09:23:14 51°12.334 2°38.607 16.6 354 3 101820 80
2004-02-23 09:23:20 51°12.344 2°38.634 16.7 349 3 101820 80
2004-02-23 09:23:24 51°12.352 2°38.651 15.8 351 3 101830 80
2004-02-23 09:23:30 51°12.361 2°38.679 15.7 350 3 101830 80
2004-02-23 09:23:34 51°12.369 2°38.697 14.2 351 3 101820 80
2004-02-23 09:23:40 51°12.378 2°38.723 17.5 348 3 101820 80
2004-02-23 09:23:44 51°12.386 2°38.74 15.3 357 3 101810 79
2004-02-23 09:23:50 51°12.395 2°38.766 15.6 354 3 101810 79
2004-02-23 09:23:54 51°12.402 2°38.783 15.1 352 3 101810 79
2004-02-23 09:23:59 51°12.41 2°38.806 13.7 352 3 101810 79
2004-02-23 09:24:04 51°12.418 2°38.827 15.1 352 2.9 101810 79
2004-02-23 09:24:10 51°12.428 2°38.855 12.9 355 2.9 101810 79
2004-02-23 09:24:14 51°12.435 2°38.871 16.9 354 3 101820 79
2004-02-23 09:24:20 51°12.446 2°38.898 14.6 357 3 101820 79